KHNDKDVT

Guest
Details From KHND - Henderson Executive
To KDVT - Phoenix Deer Valley
Flight Number -
Tags Generated
Created
Modified
Stats Distance 204 nm / 377 km
Max Altitude 0 ft / 0 m
Waypoints 2
Social Downloads 0
Likes 0
Share VATSIM

Download

Looking for another format? Having issues loading an existing format? Contact us
Advertisement - Login to hide

Notes

Generated

Route

KHND KDVT

ID Type Via Altitude Latitude Longitude Leg Dist Tot Dist Heading (true) Name
O KHND APT - 0 ft / 0 m 35.98098˚ -115.13293˚ - 0 nm - -
O KDVT APT - 0 ft / 0 m 33.68916˚ -112.08945˚ 203 nm 203 nm 132° / 133° -

Altitude Profile

Advertisement - Login to hide

Weather


0- 5 10 15 20 25 30 35+ Temperature / ° C

Clouds and Precipitation
Forecast for 2017-12-14 06:00 UTC. Updated an hour ago

Ground ~20,000 ft ~40,000 ft Winds

KHND

Details ICAO KHND (HSH)
Name Henderson Executive
Region United States
Timezone America/Los_Angeles (UTC-8.0)
Stats Elevation 2,492 ft / 760 m (AMSL)
Location 35.972988° -115.134228°
Runways 2
Magnetic Variation 11.630° E

METAR

KHND 140156Z 21008KT 10SM CLR 12/M17 A2998 RMK AO2 SLP159 T01221172 $

Decode

TAF

TAF KHND 132320Z 1400/1424 VRB05KT P6SM SKC FM140200 18007KT P6SM SCT250 FM140800 02012G20KT P6SM FEW250 FM142200 02010KT P6SM SKC

Decode

Departure Runways

ID Width Length Bearing (true) Bearing (mag) Surface Threshold Offset Overrun Length
17L 75 ft / 23 m 5,012 ft / 1,528 m 180.58° 168.95° Asphalt 0 ft / 0 m 151 ft / 46 m
17R 98 ft / 30 m 6,515 ft / 1,986 m 180.57° 168.94° Asphalt 0 ft / 0 m 200 ft / 61 m
35L 98 ft / 30 m 6,515 ft / 1,986 m 0.57° 348.94° Asphalt 0 ft / 0 m 200 ft / 61 m
35R 75 ft / 23 m 5,012 ft / 1,528 m 0.58° 348.95° Asphalt 0 ft / 0 m 151 ft / 46 m

KDVT

Details ICAO KDVT (DVT)
Name PHOENIX DEER VALLEY
Region United States
Timezone America/Phoenix (UTC-7.0)
Stats Elevation 1,478 ft / 450 m (AMSL)
Location 33.688604° -112.082441°
Runways 2
Magnetic Variation 10.376° E

METAR

KDVT 140153Z 04003KT 10SM CLR 16/M13 A2992 RMK AO2 SLP123 T01611128

Decode

TAF

Not found

Destination Runways

ID Width Length Bearing (true) Bearing (mag) Surface Threshold Offset Overrun Length
07L 75 ft / 23 m 4,491 ft / 1,369 m 86.00° 75.62° Asphalt 0 ft / 0 m 0 ft / 0 m
07R 100 ft / 30 m 8,192 ft / 2,497 m 85.98° 75.60° Asphalt 897 ft / 273 m 154 ft / 47 m
25L 100 ft / 30 m 8,192 ft / 2,497 m 266.00° 255.62° Asphalt 930 ft / 283 m 140 ft / 43 m
25R 75 ft / 23 m 4,491 ft / 1,369 m 266.01° 255.63° Asphalt 0 ft / 0 m 0 ft / 0 m